CDT,Max TemperatureF,Mean TemperatureF,Min TemperatureF,Max Dew PointF,MeanDew PointF,Min DewpointF,Max Humidity, Mean Humidity, Min Humidity, Max Sea Level PressureIn, Mean Sea Level PressureIn, Min Sea Level PressureIn, Max VisibilityMiles, Mean VisibilityMiles, Min VisibilityMiles, Max Wind SpeedMPH, Mean Wind SpeedMPH, Max Gust SpeedMPH,PrecipitationIn, CloudCover, Events, WindDirDegrees
2012-10-1,74,63,51,48,43,39,66,52,38,29.94,29.89,29.86,10,10,10,21,11,25,0.00,0,,317
2012-10-2,74,60,46,48,42,39,71,52,33,29.98,29.93,29.88,10,10,9,10,6,14,0.00,0,,65
2012-10-3,79,63,47,47,43,39,80,53,25,29.96,29.92,29.87,10,9,6,15,7,21,0.00,0,,162
2012-10-4,62,52,42,43,35,27,63,52,41,30.19,30.02,29.86,10,9,7,25,15,35,0.00,3,,270
2012-10-5,51,44,36,29,24,22,70,51,32,30.19,30.16,30.13,10,10,10,22,14,32,0.00,3,,290
2012-10-6,44,40,36,28,24,19,64,52,39,30.27,30.22,30.14,10,10,10,23,10,29,0.00,8,,316
2012-10-7,53,41,28,23,18,15,69,47,24,30.25,30.15,29.99,10,10,8,18,9,24,0.00,1,,232
2012-10-8,68,53,38,46,28,19,77,50,22,29.97,29.82,29.69,10,10,8,30,15,41,0.05,5,Rain,203
2012-10-9,53,46,38,47,38,25,83,63,42,30.00,29.84,29.77,10,9,4,24,11,31,0.10,8,Rain,269
2012-10-10,54,42,30,27,24,21,66,47,28,30.15,30.07,29.97,10,10,8,21,10,28,0.00,3,Snow,261
2012-10-11,52,43,33,33,25,16,60,46,31,30.38,30.10,29.88,10,10,10,28,17,38,0.00,2,,313
2012-10-12,54,41,27,26,18,12,69,44,19,30.48,30.35,30.10,10,10,9,21,10,26,0.01,1,Rain,141
2012-10-13,68,57,46,61,50,28,89,83,76,30.07,29.81,29.68,10,4,0,21,10,33,0.27,8,Fog-Rain,180
2012-10-14,57,50,43,54,44,32,89,68,46,29.89,29.72,29.65,10,5,0,25,14,32,0.20,7,Fog-Rain,354
2012-10-15,64,51,37,40,36,31,79,58,36,29.98,29.92,29.82,10,10,6,16,8,20,0.00,1,,249
2012-10-16,70,59,48,49,44,39,86,67,47,29.80,29.57,29.41,10,10,8,21,11,26,T,2,,161
2012-10-17,63,54,45,52,45,37,86,64,42,29.39,29.32,29.26,10,7,4,26,15,33,0.02,6,Rain,233
2012-10-18,48,46,43,40,39,37,83,75,66,29.40,29.28,29.21,10,8,2,16,7,22,0.11,8,Rain,264
2012-10-19,51,45,38,45,40,35,89,80,71,29.75,29.57,29.39,10,7,2,16,6,18,0.07,6,Rain,343
2012-10-20,54,46,37,43,38,33,89,77,64,29.88,29.82,29.75,10,4,0,12,7,14,0.00,3,Fog-Rain-Snow,230
2012-10-21,72,58,43,49,44,38,83,62,41,29.91,29.86,29.81,10,9,5,25,14,33,0.00,0,,165
2012-10-22,64,59,54,55,52,48,84,78,72,29.92,29.89,29.86,10,7,2,14,8,17,0.10,7,Rain,78
2012-10-23,71,65,59,64,59,55,90,82,73,29.86,29.79,29.71,10,4,0,18,10,22,0.06,8,Fog-Rain-Thunderstorm,146
2012-10-24,72,64,55,66,58,53,93,87,81,29.85,29.76,29.69,8,2,0,18,8,21,0.02,8,Fog-Rain,1
2012-10-25,55,46,36,52,40,25,89,74,59,30.18,29.77,29.54,10,6,0,31,20,39,0.84,8,Fog-Rain-Thunderstorm,330
2012-10-26,42,38,33,27,25,23,69,62,54,30.42,30.35,30.22,10,10,10,23,12,30,0.00,5,,292
2012-10-27,45,38,31,27,22,17,78,57,36,30.42,30.37,30.34,10,10,10,10,3,13,0.00,2,,276
2012-10-28,48,38,27,24,22,19,78,56,34,30.40,30.36,30.33,10,10,10,14,5,17,0.00,0,,164
2012-10-29,48,38,27,28,23,18,69,54,38,30.38,30.33,30.26,10,10,10,15,7,18,0.00,4,,129
2012-10-30,52,42,31,28,22,20,69,50,30,30.25,30.15,30.05,10,10,10,21,11,25,0.00,0,,10
2012-10-31,51,38,25,24,18,13,69,45,21,30.06,30.02,29.95,10,10,10,18,10,22,0.00,1,,319